sensor_id;sensor_type;location;lat;lon;timestamp;temperature;humidity
13426;DHT22;6785;57.918;12.530;2023-03-01T00:02:19;-0.80;99.90
13426;DHT22;6785;57.918;12.530;2023-03-01T00:04:47;-0.80;99.90
13426;DHT22;6785;57.918;12.530;2023-03-01T00:07:14;-0.70;99.90
13426;DHT22;6785;57.918;12.530;2023-03-01T00:09:40;-0.60;99.90
13426;DHT22;6785;57.918;12.530;2023-03-01T00:12:07;-0.60;99.90
13426;DHT22;6785;57.918;12.530;2023-03-01T00:14:35;-0.60;99.90
13426;DHT22;6785;57.918;12.530;2023-03-01T00:17:02;-0.60;99.90
13426;DHT22;6785;57.918;12.530;2023-03-01T00:19:29;-0.60;99.90
13426;DHT22;6785;57.918;12.530;2023-03-01T00:21:57;-0.60;99.90
13426;DHT22;6785;57.918;12.530;2023-03-01T00:24:23;-0.60;99.90
13426;DHT22;6785;57.918;12.530;2023-03-01T00:26:52;-0.60;99.90
13426;DHT22;6785;57.918;12.530;2023-03-01T00:29:20;-0.70;99.90
13426;DHT22;6785;57.918;12.530;2023-03-01T00:31:47;-0.70;99.90
13426;DHT22;6785;57.918;12.530;2023-03-01T00:34:14;-0.70;99.90
13426;DHT22;6785;57.918;12.530;2023-03-01T00:36:41;-0.70;99.90
13426;DHT22;6785;57.918;12.530;2023-03-01T00:39:11;-0.80;99.90
13426;DHT22;6785;57.918;12.530;2023-03-01T00:41:38;-0.80;99.90
13426;DHT22;6785;57.918;12.530;2023-03-01T00:44:05;-0.80;99.90
13426;DHT22;6785;57.918;12.530;2023-03-01T00:46:32;-0.90;99.90
13426;DHT22;6785;57.918;12.530;2023-03-01T00:48:59;-0.90;99.90
13426;DHT22;6785;57.918;12.530;2023-03-01T00:51:28;-1.00;99.90
13426;DHT22;6785;57.918;12.530;2023-03-01T00:53:56;-1.00;99.90
13426;DHT22;6785;57.918;12.530;2023-03-01T00:56:26;-1.10;99.90
13426;DHT22;6785;57.918;12.530;2023-03-01T00:58:53;-1.10;99.90
13426;DHT22;6785;57.918;12.530;2023-03-01T01:01:22;-1.10;99.90
13426;DHT22;6785;57.918;12.530;2023-03-01T01:03:50;-1.10;99.90
13426;DHT22;6785;57.918;12.530;2023-03-01T01:06:20;-1.00;99.90
13426;DHT22;6785;57.918;12.530;2023-03-01T01:08:48;-1.00;99.90
13426;DHT22;6785;57.918;12.530;2023-03-01T01:11:15;-1.00;99.90
13426;DHT22;6785;57.918;12.530;2023-03-01T01:13:44;-1.00;99.90
13426;DHT22;6785;57.918;12.530;2023-03-01T01:16:12;-0.90;99.90
13426;DHT22;6785;57.918;12.530;2023-03-01T01:18:39;-0.90;99.90
13426;DHT22;6785;57.918;12.530;2023-03-01T01:21:08;-0.90;99.90
13426;DHT22;6785;57.918;12.530;2023-03-01T01:23:36;-0.90;99.90
13426;DHT22;6785;57.918;12.530;2023-03-01T01:26:04;-0.90;99.90
13426;DHT22;6785;57.918;12.530;2023-03-01T01:28:31;-0.90;99.90
13426;DHT22;6785;57.918;12.530;2023-03-01T01:30:59;-1.00;99.90
13426;DHT22;6785;57.918;12.530;2023-03-01T01:33:26;-1.00;99.90
13426;DHT22;6785;57.918;12.530;2023-03-01T01:35:54;-1.00;99.90
13426;DHT22;6785;57.918;12.530;2023-03-01T01:38:20;-1.00;99.90
13426;DHT22;6785;57.918;12.530;2023-03-01T01:40:48;-1.10;99.90
13426;DHT22;6785;57.918;12.530;2023-03-01T01:43:21;-1.10;99.90
13426;DHT22;6785;57.918;12.530;2023-03-01T01:45:49;-1.10;99.90
13426;DHT22;6785;57.918;12.530;2023-03-01T01:48:20;-1.20;99.90
13426;DHT22;6785;57.918;12.530;2023-03-01T01:50:51;-1.10;99.90
13426;DHT22;6785;57.918;12.530;2023-03-01T01:53:20;-1.10;99.90
13426;DHT22;6785;57.918;12.530;2023-03-01T01:55:51;-1.20;99.90
13426;DHT22;6785;57.918;12.530;2023-03-01T01:58:20;-1.20;99.90
13426;DHT22;6785;57.918;12.530;2023-03-01T02:00:48;-1.20;99.90
13426;DHT22;6785;57.918;12.530;2023-03-01T02:03:20;-1.20;99.90
13426;DHT22;6785;57.918;12.530;2023-03-01T02:05:52;-1.30;99.90
13426;DHT22;6785;57.918;12.530;2023-03-01T02:08:21;-1.30;99.90
13426;DHT22;6785;57.918;12.530;2023-03-01T02:10:50;-1.30;99.90
13426;DHT22;6785;57.918;12.530;2023-03-01T02:13:18;-1.30;99.90
13426;DHT22;6785;57.918;12.530;2023-03-01T02:15:44;-1.30;99.90
13426;DHT22;6785;57.918;12.530;2023-03-01T02:18:14;-1.30;99.90
13426;DHT22;6785;57.918;12.530;2023-03-01T02:20:55;-1.40;99.90
13426;DHT22;6785;57.918;12.530;2023-03-01T02:23:25;-1.40;99.90
13426;DHT22;6785;57.918;12.530;2023-03-01T02:25:57;-1.40;99.90
13426;DHT22;6785;57.918;12.530;2023-03-01T02:28:29;-1.50;99.90
13426;DHT22;6785;57.918;12.530;2023-03-01T02:30:57;-1.50;99.90
13426;DHT22;6785;57.918;12.530;2023-03-01T02:33:43;-1.60;99.90
13426;DHT22;6785;57.918;12.530;2023-03-01T02:36:12;-1.60;99.90
13426;DHT22;6785;57.918;12.530;2023-03-01T02:38:40;-1.70;99.90
13426;DHT22;6785;57.918;12.530;2023-03-01T02:41:08;-1.70;99.90
13426;DHT22;6785;57.918;12.530;2023-03-01T02:43:38;-1.70;99.90
13426;DHT22;6785;57.918;12.530;2023-03-01T02:46:08;-1.70;99.90
13426;DHT22;6785;57.918;12.530;2023-03-01T02:48:41;-1.70;99.90
13426;DHT22;6785;57.918;12.530;2023-03-01T02:54:04;-1.80;99.90
13426;DHT22;6785;57.918;12.530;2023-03-01T02:56:33;-1.80;99.90
13426;DHT22;6785;57.918;12.530;2023-03-01T02:59:02;-1.80;99.90
13426;DHT22;6785;57.918;12.530;2023-03-01T03:01:29;-1.80;99.90
13426;DHT22;6785;57.918;12.530;2023-03-01T03:04:02;-1.70;99.90
13426;DHT22;6785;57.918;12.530;2023-03-01T03:06:29;-1.80;99.90
13426;DHT22;6785;57.918;12.530;2023-03-01T03:08:56;-1.80;99.90
13426;DHT22;6785;57.918;12.530;2023-03-01T03:11:23;-1.70;99.90
13426;DHT22;6785;57.918;12.530;2023-03-01T03:13:49;-1.70;99.90
13426;DHT22;6785;57.918;12.530;2023-03-01T03:16:18;-1.80;99.90
13426;DHT22;6785;57.918;12.530;2023-03-01T03:18:45;-1.80;99.90
13426;DHT22;6785;57.918;12.530;2023-03-01T03:21:13;-1.80;99.90
13426;DHT22;6785;57.918;12.530;2023-03-01T03:23:39;-1.90;99.90
13426;DHT22;6785;57.918;12.530;2023-03-01T03:26:06;-1.90;99.90
13426;DHT22;6785;57.918;12.530;2023-03-01T03:28:34;-1.90;99.90
13426;DHT22;6785;57.918;12.530;2023-03-01T03:31:01;-1.90;99.90
13426;DHT22;6785;57.918;12.530;2023-03-01T03:33:30;-1.90;99.90
13426;DHT22;6785;57.918;12.530;2023-03-01T03:35:57;-1.90;99.90
13426;DHT22;6785;57.918;12.530;2023-03-01T03:38:24;-1.90;99.90
13426;DHT22;6785;57.918;12.530;2023-03-01T03:41:00;-1.90;99.90
13426;DHT22;6785;57.918;12.530;2023-03-01T03:43:28;-1.90;99.90
13426;DHT22;6785;57.918;12.530;2023-03-01T03:45:55;-1.90;99.90
13426;DHT22;6785;57.918;12.530;2023-03-01T03:48:23;-1.90;99.90
13426;DHT22;6785;57.918;12.530;2023-03-01T03:50:53;-1.90;99.90
13426;DHT22;6785;57.918;12.530;2023-03-01T03:53:21;-1.90;99.90
13426;DHT22;6785;57.918;12.530;2023-03-01T03:55:48;-1.90;99.90
13426;DHT22;6785;57.918;12.530;2023-03-01T03:58:17;-1.90;99.90
13426;DHT22;6785;57.918;12.530;2023-03-01T04:00:45;-1.90;99.90
13426;DHT22;6785;57.918;12.530;2023-03-01T04:03:14;-1.90;99.90
13426;DHT22;6785;57.918;12.530;2023-03-01T04:05:42;-1.90;99.90
13426;DHT22;6785;57.918;12.530;2023-03-01T04:08:10;-2.00;99.90
13426;DHT22;6785;57.918;12.530;2023-03-01T04:10:39;-2.00;99.90
13426;DHT22;6785;57.918;12.530;2023-03-01T04:13:08;-2.10;99.90
13426;DHT22;6785;57.918;12.530;2023-03-01T04:15:35;-2.10;99.90
13426;DHT22;6785;57.918;12.530;2023-03-01T04:18:03;-2.00;99.90
13426;DHT22;6785;57.918;12.530;2023-03-01T04:20:32;-2.00;99.90
13426;DHT22;6785;57.918;12.530;2023-03-01T04:23:01;-2.00;99.90
13426;DHT22;6785;57.918;12.530;2023-03-01T04:25:38;-2.00;99.90
13426;DHT22;6785;57.918;12.530;2023-03-01T04:28:05;-2.00;99.90
13426;DHT22;6785;57.918;12.530;2023-03-01T04:30:32;-2.00;99.90
13426;DHT22;6785;57.918;12.530;2023-03-01T04:33:02;-1.90;99.90
13426;DHT22;6785;57.918;12.530;2023-03-01T04:35:28;-1.90;99.90
13426;DHT22;6785;57.918;12.530;2023-03-01T04:37:55;-1.90;99.90
13426;DHT22;6785;57.918;12.530;2023-03-01T04:40:23;-1.90;99.90
13426;DHT22;6785;57.918;12.530;2023-03-01T04:42:51;-1.90;99.90
13426;DHT22;6785;57.918;12.530;2023-03-01T04:45:18;-2.00;99.90
13426;DHT22;6785;57.918;12.530;2023-03-01T04:47:46;-2.00;99.90
13426;DHT22;6785;57.918;12.530;2023-03-01T04:50:15;-2.00;99.90
13426;DHT22;6785;57.918;12.530;2023-03-01T04:52:42;-2.00;99.90
13426;DHT22;6785;57.918;12.530;2023-03-01T04:55:10;-2.00;99.90
13426;DHT22;6785;57.918;12.530;2023-03-01T04:57:37;-2.00;99.90
13426;DHT22;6785;57.918;12.530;2023-03-01T05:00:07;-2.00;99.90
13426;DHT22;6785;57.918;12.530;2023-03-01T05:02:47;-2.00;99.90
13426;DHT22;6785;57.918;12.530;2023-03-01T05:05:19;-2.00;99.90
13426;DHT22;6785;57.918;12.530;2023-03-01T05:07:46;-2.00;99.90
13426;DHT22;6785;57.918;12.530;2023-03-01T05:10:13;-2.00;99.90
13426;DHT22;6785;57.918;12.530;2023-03-01T05:12:40;-2.00;99.90
13426;DHT22;6785;57.918;12.530;2023-03-01T05:15:09;-2.00;99.90
13426;DHT22;6785;57.918;12.530;2023-03-01T05:17:36;-2.00;99.90
13426;DHT22;6785;57.918;12.530;2023-03-01T05:20:03;-2.00;99.90
13426;DHT22;6785;57.918;12.530;2023-03-01T05:22:33;-2.00;99.90
13426;DHT22;6785;57.918;12.530;2023-03-01T05:25:00;-2.10;99.90
13426;DHT22;6785;57.918;12.530;2023-03-01T05:27:27;-2.00;99.90
13426;DHT22;6785;57.918;12.530;2023-03-01T05:29:54;-2.00;99.90
13426;DHT22;6785;57.918;12.530;2023-03-01T05:32:23;-2.00;99.90
13426;DHT22;6785;57.918;12.530;2023-03-01T05:34:49;-2.00;99.90
13426;DHT22;6785;57.918;12.530;2023-03-01T05:37:17;-2.10;99.90
13426;DHT22;6785;57.918;12.530;2023-03-01T05:39:45;-2.10;99.90
13426;DHT22;6785;57.918;12.530;2023-03-01T05:42:11;-2.10;99.90
13426;DHT22;6785;57.918;12.530;2023-03-01T05:44:38;-2.10;99.90
13426;DHT22;6785;57.918;12.530;2023-03-01T05:47:05;-2.10;99.90
13426;DHT22;6785;57.918;12.530;2023-03-01T05:49:33;-2.10;99.90
13426;DHT22;6785;57.918;12.530;2023-03-01T05:52:00;-2.20;99.90
13426;DHT22;6785;57.918;12.530;2023-03-01T05:54:27;-2.30;99.90
13426;DHT22;6785;57.918;12.530;2023-03-01T05:56:54;-2.30;99.90
13426;DHT22;6785;57.918;12.530;2023-03-01T05:59:21;-2.30;99.90
13426;DHT22;6785;57.918;12.530;2023-03-01T06:01:48;-2.40;99.90
13426;DHT22;6785;57.918;12.530;2023-03-01T06:04:15;-2.40;99.90
13426;DHT22;6785;57.918;12.530;2023-03-01T06:06:43;-2.50;99.90
13426;DHT22;6785;57.918;12.530;2023-03-01T06:09:10;-2.50;99.90
13426;DHT22;6785;57.918;12.530;2023-03-01T06:11:37;-2.50;99.90
13426;DHT22;6785;57.918;12.530;2023-03-01T06:14:04;-2.50;99.90
13426;DHT22;6785;57.918;12.530;2023-03-01T06:16:32;-2.50;99.90
13426;DHT22;6785;57.918;12.530;2023-03-01T06:18:58;-2.50;99.90
13426;DHT22;6785;57.918;12.530;2023-03-01T06:21:25;-2.50;99.90
13426;DHT22;6785;57.918;12.530;2023-03-01T06:23:53;-2.40;99.90
13426;DHT22;6785;57.918;12.530;2023-03-01T06:26:20;-2.40;99.90
13426;DHT22;6785;57.918;12.530;2023-03-01T06:28:46;-2.40;99.90
13426;DHT22;6785;57.918;12.530;2023-03-01T06:31:13;-2.30;99.90
13426;DHT22;6785;57.918;12.530;2023-03-01T06:33:40;-2.30;99.90
13426;DHT22;6785;57.918;12.530;2023-03-01T06:36:07;-2.20;99.90
13426;DHT22;6785;57.918;12.530;2023-03-01T06:38:35;-2.10;99.90
13426;DHT22;6785;57.918;12.530;2023-03-01T06:41:03;-2.10;99.90
13426;DHT22;6785;57.918;12.530;2023-03-01T06:43:30;-2.10;99.90
13426;DHT22;6785;57.918;12.530;2023-03-01T06:45:57;-2.10;99.90
13426;DHT22;6785;57.918;12.530;2023-03-01T06:48:24;-2.10;99.90
13426;DHT22;6785;57.918;12.530;2023-03-01T06:50:50;-2.00;99.90
13426;DHT22;6785;57.918;12.530;2023-03-01T06:53:17;-1.90;99.90
13426;DHT22;6785;57.918;12.530;2023-03-01T06:55:44;-1.90;99.90
13426;DHT22;6785;57.918;12.530;2023-03-01T06:58:12;-1.80;99.90
13426;DHT22;6785;57.918;12.530;2023-03-01T07:00:39;-1.70;99.90
13426;DHT22;6785;57.918;12.530;2023-03-01T07:03:06;-1.60;99.90
13426;DHT22;6785;57.918;12.530;2023-03-01T07:05:33;-1.50;99.90
13426;DHT22;6785;57.918;12.530;2023-03-01T07:08:00;-1.50;99.90
13426;DHT22;6785;57.918;12.530;2023-03-01T07:10:27;-1.40;99.90
13426;DHT22;6785;57.918;12.530;2023-03-01T07:12:55;-1.30;99.90
13426;DHT22;6785;57.918;12.530;2023-03-01T07:15:23;-1.30;99.90
13426;DHT22;6785;57.918;12.530;2023-03-01T07:17:50;-1.20;99.90
13426;DHT22;6785;57.918;12.530;2023-03-01T07:20:18;-1.20;99.90
13426;DHT22;6785;57.918;12.530;2023-03-01T07:22:47;-1.10;99.90
13426;DHT22;6785;57.918;12.530;2023-03-01T07:25:14;-1.00;99.90
13426;DHT22;6785;57.918;12.530;2023-03-01T07:27:41;-0.80;99.90
13426;DHT22;6785;57.918;12.530;2023-03-01T07:30:09;-0.70;99.90
13426;DHT22;6785;57.918;12.530;2023-03-01T07:32:37;-0.50;99.90
13426;DHT22;6785;57.918;12.530;2023-03-01T07:35:04;-0.40;99.90
13426;DHT22;6785;57.918;12.530;2023-03-01T07:37:31;-0.20;99.90
13426;DHT22;6785;57.918;12.530;2023-03-01T07:39:58;0.10;99.90
13426;DHT22;6785;57.918;12.530;2023-03-01T07:42:24;0.30;99.90
13426;DHT22;6785;57.918;12.530;2023-03-01T07:44:51;0.40;99.90
13426;DHT22;6785;57.918;12.530;2023-03-01T07:47:18;0.60;99.90
13426;DHT22;6785;57.918;12.530;2023-03-01T07:49:46;0.60;99.90
13426;DHT22;6785;57.918;12.530;2023-03-01T07:52:13;0.70;99.90
13426;DHT22;6785;57.918;12.530;2023-03-01T07:54:42;0.90;99.90
13426;DHT22;6785;57.918;12.530;2023-03-01T07:57:09;0.90;99.90
13426;DHT22;6785;57.918;12.530;2023-03-01T07:59:36;1.00;99.90
13426;DHT22;6785;57.918;12.530;2023-03-01T08:02:03;1.10;99.90
13426;DHT22;6785;57.918;12.530;2023-03-01T08:04:30;1.20;99.90
13426;DHT22;6785;57.918;12.530;2023-03-01T08:06:58;1.30;99.90
13426;DHT22;6785;57.918;12.530;2023-03-01T08:09:25;1.30;99.90
13426;DHT22;6785;57.918;12.530;2023-03-01T08:11:52;1.50;99.90
13426;DHT22;6785;57.918;12.530;2023-03-01T08:14:19;1.60;99.90
13426;DHT22;6785;57.918;12.530;2023-03-01T08:16:49;1.60;99.90
13426;DHT22;6785;57.918;12.530;2023-03-01T08:19:16;1.70;99.90
13426;DHT22;6785;57.918;12.530;2023-03-01T08:21:43;1.70;99.90
13426;DHT22;6785;57.918;12.530;2023-03-01T08:24:11;1.90;99.90
13426;DHT22;6785;57.918;12.530;2023-03-01T08:26:38;1.90;99.90
13426;DHT22;6785;57.918;12.530;2023-03-01T08:29:04;1.90;99.90
13426;DHT22;6785;57.918;12.530;2023-03-01T08:31:34;1.90;99.90
13426;DHT22;6785;57.918;12.530;2023-03-01T08:34:03;1.90;99.90
13426;DHT22;6785;57.918;12.530;2023-03-01T08:36:32;2.00;99.90
13426;DHT22;6785;57.918;12.530;2023-03-01T08:38:59;2.10;99.90
13426;DHT22;6785;57.918;12.530;2023-03-01T08:41:27;2.20;99.90
13426;DHT22;6785;57.918;12.530;2023-03-01T08:43:54;2.30;99.90
13426;DHT22;6785;57.918;12.530;2023-03-01T08:46:24;2.30;99.90
13426;DHT22;6785;57.918;12.530;2023-03-01T08:48:51;2.40;99.90
13426;DHT22;6785;57.918;12.530;2023-03-01T08:51:19;2.40;99.90
13426;DHT22;6785;57.918;12.530;2023-03-01T08:53:47;2.40;99.90
13426;DHT22;6785;57.918;12.530;2023-03-01T08:56:13;2.50;99.90
13426;DHT22;6785;57.918;12.530;2023-03-01T08:58:44;2.50;99.90
13426;DHT22;6785;57.918;12.530;2023-03-01T09:01:12;2.60;99.90
13426;DHT22;6785;57.918;12.530;2023-03-01T09:03:39;2.70;99.90
13426;DHT22;6785;57.918;12.530;2023-03-01T09:06:07;2.70;99.90
13426;DHT22;6785;57.918;12.530;2023-03-01T09:08:34;2.80;99.90
13426;DHT22;6785;57.918;12.530;2023-03-01T09:11:02;2.90;99.90
13426;DHT22;6785;57.918;12.530;2023-03-01T09:13:29;2.90;99.90
13426;DHT22;6785;57.918;12.530;2023-03-01T09:15:58;3.00;99.90
13426;DHT22;6785;57.918;12.530;2023-03-01T09:18:25;3.00;99.90
13426;DHT22;6785;57.918;12.530;2023-03-01T09:20:51;3.00;99.90
13426;DHT22;6785;57.918;12.530;2023-03-01T09:23:20;3.10;99.90
13426;DHT22;6785;57.918;12.530;2023-03-01T09:25:47;3.20;99.90
13426;DHT22;6785;57.918;12.530;2023-03-01T09:28:13;3.30;99.90
13426;DHT22;6785;57.918;12.530;2023-03-01T09:30:40;3.40;99.90
13426;DHT22;6785;57.918;12.530;2023-03-01T09:33:08;3.40;99.90
13426;DHT22;6785;57.918;12.530;2023-03-01T09:35:40;3.50;99.90
13426;DHT22;6785;57.918;12.530;2023-03-01T09:38:11;3.60;99.90
13426;DHT22;6785;57.918;12.530;2023-03-01T09:40:42;3.60;99.90
13426;DHT22;6785;57.918;12.530;2023-03-01T09:43:15;3.70;99.90
13426;DHT22;6785;57.918;12.530;2023-03-01T09:45:45;3.70;99.90
13426;DHT22;6785;57.918;12.530;2023-03-01T09:48:16;3.80;99.90
13426;DHT22;6785;57.918;12.530;2023-03-01T09:50:47;3.90;99.90
13426;DHT22;6785;57.918;12.530;2023-03-01T09:53:16;4.00;99.90
13426;DHT22;6785;57.918;12.530;2023-03-01T09:55:45;4.00;99.90
13426;DHT22;6785;57.918;12.530;2023-03-01T09:58:31;4.30;99.90
13426;DHT22;6785;57.918;12.530;2023-03-01T10:01:05;4.30;99.90
13426;DHT22;6785;57.918;12.530;2023-03-01T10:03:42;4.40;99.90
13426;DHT22;6785;57.918;12.530;2023-03-01T10:06:12;4.40;99.90
13426;DHT22;6785;57.918;12.530;2023-03-01T10:08:41;4.50;99.90
13426;DHT22;6785;57.918;12.530;2023-03-01T10:11:20;4.50;99.90
13426;DHT22;6785;57.918;12.530;2023-03-01T10:13:52;4.60;99.90
13426;DHT22;6785;57.918;12.530;2023-03-01T10:16:24;4.70;99.90
13426;DHT22;6785;57.918;12.530;2023-03-01T10:18:55;4.70;99.90
13426;DHT22;6785;57.918;12.530;2023-03-01T10:21:27;4.80;99.90
13426;DHT22;6785;57.918;12.530;2023-03-01T10:23:55;4.80;99.90
13426;DHT22;6785;57.918;12.530;2023-03-01T10:26:34;4.90;99.90
13426;DHT22;6785;57.918;12.530;2023-03-01T10:29:06;5.00;99.90
13426;DHT22;6785;57.918;12.530;2023-03-01T10:31:39;5.10;99.90
13426;DHT22;6785;57.918;12.530;2023-03-01T10:34:14;5.20;99.90
13426;DHT22;6785;57.918;12.530;2023-03-01T10:36:42;5.30;99.90
13426;DHT22;6785;57.918;12.530;2023-03-01T10:39:15;5.30;99.90
13426;DHT22;6785;57.918;12.530;2023-03-01T10:41:54;5.30;99.90
13426;DHT22;6785;57.918;12.530;2023-03-01T10:44:43;5.30;99.90
13426;DHT22;6785;57.918;12.530;2023-03-01T10:47:16;5.40;99.90
13426;DHT22;6785;57.918;12.530;2023-03-01T10:49:58;5.40;99.90
13426;DHT22;6785;57.918;12.530;2023-03-01T10:52:29;5.50;99.90
13426;DHT22;6785;57.918;12.530;2023-03-01T10:54:57;5.50;99.90
13426;DHT22;6785;57.918;12.530;2023-03-01T10:57:38;5.60;99.90
13426;DHT22;6785;57.918;12.530;2023-03-01T11:00:24;5.70;99.90
13426;DHT22;6785;57.918;12.530;2023-03-01T11:03:03;5.70;99.90
13426;DHT22;6785;57.918;12.530;2023-03-01T11:05:31;5.80;99.90
13426;DHT22;6785;57.918;12.530;2023-03-01T11:08:00;5.90;99.90
13426;DHT22;6785;57.918;12.530;2023-03-01T11:10:30;5.90;99.90
13426;DHT22;6785;57.918;12.530;2023-03-01T11:13:07;6.00;99.90
13426;DHT22;6785;57.918;12.530;2023-03-01T11:15:35;5.90;99.90
13426;DHT22;6785;57.918;12.530;2023-03-01T11:18:02;5.90;99.90
13426;DHT22;6785;57.918;12.530;2023-03-01T11:20:33;6.00;99.90
13426;DHT22;6785;57.918;12.530;2023-03-01T11:23:04;6.20;99.90
13426;DHT22;6785;57.918;12.530;2023-03-01T11:25:36;6.20;99.90
13426;DHT22;6785;57.918;12.530;2023-03-01T11:28:05;6.30;99.90
13426;DHT22;6785;57.918;12.530;2023-03-01T11:30:35;6.40;99.90
13426;DHT22;6785;57.918;12.530;2023-03-01T11:33:13;6.40;99.90
13426;DHT22;6785;57.918;12.530;2023-03-01T11:35:47;6.50;99.90
13426;DHT22;6785;57.918;12.530;2023-03-01T11:38:21;6.30;99.90
13426;DHT22;6785;57.918;12.530;2023-03-01T11:40:51;6.20;99.90
13426;DHT22;6785;57.918;12.530;2023-03-01T11:43:25;6.30;99.90
13426;DHT22;6785;57.918;12.530;2023-03-01T11:46:08;6.40;99.90
13426;DHT22;6785;57.918;12.530;2023-03-01T11:48:48;6.20;99.90
13426;DHT22;6785;57.918;12.530;2023-03-01T11:51:24;6.30;99.90
13426;DHT22;6785;57.918;12.530;2023-03-01T11:54:06;6.40;99.90
13426;DHT22;6785;57.918;12.530;2023-03-01T11:56:39;6.40;99.90
13426;DHT22;6785;57.918;12.530;2023-03-01T11:59:36;6.50;99.90
13426;DHT22;6785;57.918;12.530;2023-03-01T12:02:36;6.60;99.90
13426;DHT22;6785;57.918;12.530;2023-03-01T12:05:25;6.50;99.90
13426;DHT22;6785;57.918;12.530;2023-03-01T12:08:04;6.50;99.90
13426;DHT22;6785;57.918;12.530;2023-03-01T12:10:38;6.60;99.90
13426;DHT22;6785;57.918;12.530;2023-03-01T12:13:23;6.60;99.90
13426;DHT22;6785;57.918;12.530;2023-03-01T12:16:11;6.80;99.90
13426;DHT22;6785;57.918;12.530;2023-03-01T12:19:15;6.90;99.90
13426;DHT22;6785;57.918;12.530;2023-03-01T12:21:56;6.80;99.90
13426;DHT22;6785;57.918;12.530;2023-03-01T12:24:49;6.70;99.90
13426;DHT22;6785;57.918;12.530;2023-03-01T12:27:34;6.80;99.90
13426;DHT22;6785;57.918;12.530;2023-03-01T12:30:17;7.00;99.90
13426;DHT22;6785;57.918;12.530;2023-03-01T12:32:59;7.00;99.90
13426;DHT22;6785;57.918;12.530;2023-03-01T12:35:53;6.90;99.90
13426;DHT22;6785;57.918;12.530;2023-03-01T12:38:32;7.00;99.90
13426;DHT22;6785;57.918;12.530;2023-03-01T12:44:11;7.10;99.90
13426;DHT22;6785;57.918;12.530;2023-03-01T12:46:49;7.20;99.90
13426;DHT22;6785;57.918;12.530;2023-03-01T12:49:21;7.20;99.90
13426;DHT22;6785;57.918;12.530;2023-03-01T12:51:54;7.20;99.90
13426;DHT22;6785;57.918;12.530;2023-03-01T12:54:26;7.00;99.90
13426;DHT22;6785;57.918;12.530;2023-03-01T12:56:55;7.00;99.90
13426;DHT22;6785;57.918;12.530;2023-03-01T12:59:29;6.90;99.90
13426;DHT22;6785;57.918;12.530;2023-03-01T13:02:06;6.90;99.90
13426;DHT22;6785;57.918;12.530;2023-03-01T13:04:45;7.10;99.90
13426;DHT22;6785;57.918;12.530;2023-03-01T13:07:29;7.00;99.90
13426;DHT22;6785;57.918;12.530;2023-03-01T13:10:11;7.00;99.90
13426;DHT22;6785;57.918;12.530;2023-03-01T13:12:45;7.00;99.90
13426;DHT22;6785;57.918;12.530;2023-03-01T13:15:37;7.10;99.90
13426;DHT22;6785;57.918;12.530;2023-03-01T13:18:28;7.10;99.90
13426;DHT22;6785;57.918;12.530;2023-03-01T13:20:56;7.10;99.90
13426;DHT22;6785;57.918;12.530;2023-03-01T13:23:26;7.10;99.90
13426;DHT22;6785;57.918;12.530;2023-03-01T13:26:08;7.00;99.90
13426;DHT22;6785;57.918;12.530;2023-03-01T13:28:54;7.00;99.90
13426;DHT22;6785;57.918;12.530;2023-03-01T13:34:56;6.90;99.90
13426;DHT22;6785;57.918;12.530;2023-03-01T13:37:34;7.00;99.90
13426;DHT22;6785;57.918;12.530;2023-03-01T13:40:05;7.10;99.90
13426;DHT22;6785;57.918;12.530;2023-03-01T13:42:53;7.10;99.90
13426;DHT22;6785;57.918;12.530;2023-03-01T13:45:25;7.20;99.90
13426;DHT22;6785;57.918;12.530;2023-03-01T13:48:00;7.10;99.90
13426;DHT22;6785;57.918;12.530;2023-03-01T13:50:31;7.10;99.90
13426;DHT22;6785;57.918;12.530;2023-03-01T13:53:02;7.10;99.90
13426;DHT22;6785;57.918;12.530;2023-03-01T13:55:36;7.00;99.90
13426;DHT22;6785;57.918;12.530;2023-03-01T13:58:15;6.90;99.90
13426;DHT22;6785;57.918;12.530;2023-03-01T14:00:43;7.00;99.90
13426;DHT22;6785;57.918;12.530;2023-03-01T14:03:13;6.90;99.90
13426;DHT22;6785;57.918;12.530;2023-03-01T14:05:41;6.90;99.90
13426;DHT22;6785;57.918;12.530;2023-03-01T14:08:20;6.80;99.90
13426;DHT22;6785;57.918;12.530;2023-03-01T14:13:48;6.90;99.90
13426;DHT22;6785;57.918;12.530;2023-03-01T14:16:27;7.00;99.90
13426;DHT22;6785;57.918;12.530;2023-03-01T14:19:05;6.90;99.90
13426;DHT22;6785;57.918;12.530;2023-03-01T14:21:36;6.80;99.90
13426;DHT22;6785;57.918;12.530;2023-03-01T14:24:03;6.90;99.90
13426;DHT22;6785;57.918;12.530;2023-03-01T14:26:31;6.90;99.90
13426;DHT22;6785;57.918;12.530;2023-03-01T14:28:58;6.90;99.90
13426;DHT22;6785;57.918;12.530;2023-03-01T14:31:36;6.90;99.90
13426;DHT22;6785;57.918;12.530;2023-03-01T14:34:04;6.80;99.90
13426;DHT22;6785;57.918;12.530;2023-03-01T14:36:32;6.80;99.90
13426;DHT22;6785;57.918;12.530;2023-03-01T14:39:00;6.80;99.90
13426;DHT22;6785;57.918;12.530;2023-03-01T14:41:32;6.80;99.90
13426;DHT22;6785;57.918;12.530;2023-03-01T14:44:01;6.80;99.90
13426;DHT22;6785;57.918;12.530;2023-03-01T14:46:31;6.80;99.90
13426;DHT22;6785;57.918;12.530;2023-03-01T14:49:02;6.80;99.90
13426;DHT22;6785;57.918;12.530;2023-03-01T14:51:30;6.70;99.90
13426;DHT22;6785;57.918;12.530;2023-03-01T14:53:57;6.60;99.90
13426;DHT22;6785;57.918;12.530;2023-03-01T14:56:23;6.60;99.90
13426;DHT22;6785;57.918;12.530;2023-03-01T14:58:59;6.60;99.90
13426;DHT22;6785;57.918;12.530;2023-03-01T15:01:26;6.50;99.90
13426;DHT22;6785;57.918;12.530;2023-03-01T15:03:54;6.50;99.90
13426;DHT22;6785;57.918;12.530;2023-03-01T15:06:23;6.60;99.90
13426;DHT22;6785;57.918;12.530;2023-03-01T15:08:52;6.60;99.90
13426;DHT22;6785;57.918;12.530;2023-03-01T15:11:21;6.70;99.90
13426;DHT22;6785;57.918;12.530;2023-03-01T15:13:50;6.60;99.90
13426;DHT22;6785;57.918;12.530;2023-03-01T15:16:18;6.60;99.90
13426;DHT22;6785;57.918;12.530;2023-03-01T15:18:47;6.60;99.90
13426;DHT22;6785;57.918;12.530;2023-03-01T15:21:17;6.60;99.90
13426;DHT22;6785;57.918;12.530;2023-03-01T15:23:50;6.50;99.90
13426;DHT22;6785;57.918;12.530;2023-03-01T15:26:28;6.30;99.90
13426;DHT22;6785;57.918;12.530;2023-03-01T15:28:58;6.20;99.90
13426;DHT22;6785;57.918;12.530;2023-03-01T15:31:26;6.10;99.90
13426;DHT22;6785;57.918;12.530;2023-03-01T15:34:08;6.20;99.90
13426;DHT22;6785;57.918;12.530;2023-03-01T15:36:40;6.20;99.90
13426;DHT22;6785;57.918;12.530;2023-03-01T15:39:27;6.00;99.90
13426;DHT22;6785;57.918;12.530;2023-03-01T15:41:54;5.90;99.90
13426;DHT22;6785;57.918;12.530;2023-03-01T15:44:26;5.90;99.90
13426;DHT22;6785;57.918;12.530;2023-03-01T15:46:53;5.80;99.90
13426;DHT22;6785;57.918;12.530;2023-03-01T15:49:27;5.70;99.90
13426;DHT22;6785;57.918;12.530;2023-03-01T15:51:56;5.50;99.90
13426;DHT22;6785;57.918;12.530;2023-03-01T15:54:26;5.40;99.90
13426;DHT22;6785;57.918;12.530;2023-03-01T15:56:53;5.30;99.90
13426;DHT22;6785;57.918;12.530;2023-03-01T15:59:20;5.30;99.90
13426;DHT22;6785;57.918;12.530;2023-03-01T16:01:48;5.20;99.90
13426;DHT22;6785;57.918;12.530;2023-03-01T16:04:17;5.10;99.90
13426;DHT22;6785;57.918;12.530;2023-03-01T16:06:48;5.00;99.90
13426;DHT22;6785;57.918;12.530;2023-03-01T16:09:20;4.90;99.90
13426;DHT22;6785;57.918;12.530;2023-03-01T16:11:48;4.80;99.90
13426;DHT22;6785;57.918;12.530;2023-03-01T16:14:15;4.70;99.90